Time;durP1;ratioP1;P1;durP2;ratioP2;P2;SDS_P1;SDS_P2;PMS_P1;PMS_P2;Temp;Humidity;BMP_temperature;BMP_pressure;BME280_temperature;BME280_humidity;BME280_pressure;Samples;Min_cycle;Max_cycle;Signal;HPM_P1;HPM_P2
2022/01/28 00:01:05;;;;;;;29.37;4.33;;;;;;;6.48;100.00;98597.88;5077759;28;20606;-61
2022/01/28 00:03:33;;;;;;;18.77;3.73;;;;;;;6.57;100.00;98613.50;5077645;28;20637;-60
2022/01/28 00:06:02;;;;;;;13.33;3.77;;;;;;;6.51;100.00;98612.53;5080673;28;20613;-60
2022/01/28 00:08:29;;;;;;;44.30;4.10;;;;;;;6.45;100.00;98610.78;5080959;28;20651;-60
2022/01/28 00:10:56;;;;;;;8.33;3.07;;;;;;;6.55;100.00;98603.13;5078772;28;20635;-60
2022/01/28 00:13:30;;;;;;;16.80;3.97;;;;;;;6.63;100.00;98604.66;5077591;28;20610;-60
2022/01/28 00:19:04;;;;;;;23.20;3.33;;;;;;;6.66;100.00;98610.34;5080593;28;20602;-60
2022/01/28 00:38:24;;;;;;;20.67;3.90;;;;;;;6.35;100.00;98648.41;5042368;28;20620;-60
2022/01/28 00:40:51;;;;;;;16.03;3.70;;;;;;;6.42;100.00;98654.47;5037205;28;20626;-59
2022/01/28 00:43:17;;;;;;;19.87;3.60;;;;;;;6.62;100.00;98651.66;5060492;28;20652;-60
2022/01/28 00:45:44;;;;;;;72.67;6.30;;;;;;;6.37;100.00;98653.50;5079898;28;20609;-61
2022/01/28 00:48:11;;;;;;;10.30;3.00;;;;;;;6.40;100.00;98653.88;5077365;28;20638;-60
2022/01/28 00:50:38;;;;;;;21.13;3.60;;;;;;;6.37;100.00;98662.28;5077107;28;20611;-60
2022/01/28 00:53:04;;;;;;;22.60;4.03;;;;;;;6.51;100.00;98655.81;5072192;28;20655;-61
2022/01/28 00:55:32;;;;;;;11.50;3.53;;;;;;;6.38;100.00;98652.47;5085327;28;21201;-59
2022/01/28 00:57:59;;;;;;;35.17;4.43;;;;;;;6.38;100.00;98661.25;5083800;28;20602;-60
2022/01/28 01:00:25;;;;;;;15.87;2.80;;;;;;;6.32;100.00;98664.75;5084285;28;20636;-59
2022/01/28 01:02:52;;;;;;;15.00;3.00;;;;;;;6.38;100.00;98669.19;5082466;28;20628;-60
2022/01/28 01:05:20;;;;;;;18.60;3.03;;;;;;;6.53;100.00;98673.38;5080933;28;21488;-60
2022/01/28 01:07:47;;;;;;;54.67;5.33;;;;;;;6.50;100.00;98675.41;5081908;28;20657;-59
2022/01/28 01:10:13;;;;;;;49.77;4.97;;;;;;;6.40;100.00;98677.78;5084285;28;20632;-58
2022/01/28 01:12:44;;;;;;;34.73;4.43;;;;;;;6.53;100.00;98680.28;5083839;28;20628;-59
2022/01/28 01:15:14;;;;;;;8.83;3.00;;;;;;;6.47;100.00;98669.72;5080774;28;20610;-59
2022/01/28 01:17:46;;;;;;;52.93;4.13;;;;;;;6.46;100.00;98684.88;5080919;28;20598;-59
2022/01/28 01:20:33;;;;;;;13.20;3.07;;;;;;;6.43;100.00;98677.34;5084323;28;20609;-60
2022/01/28 01:23:08;;;;;;;17.43;3.33;;;;;;;6.38;100.00;98684.28;5083356;28;20698;-59
2022/01/28 01:25:43;;;;;;;11.07;2.43;;;;;;;6.49;100.00;98681.78;5084546;28;20602;-60
2022/01/28 01:28:12;;;;;;;18.20;3.80;;;;;;;6.58;100.00;98684.13;5080794;28;20668;-61
2022/01/28 01:30:41;;;;;;;12.90;3.17;;;;;;;6.51;100.00;98687.66;5080702;28;20658;-59
2022/01/28 01:33:09;;;;;;;22.87;3.97;;;;;;;6.48;100.00;98692.59;5084088;28;20601;-59
2022/01/28 01:35:36;;;;;;;15.77;4.10;;;;;;;6.51;100.00;98692.97;5083960;28;20602;-59
2022/01/28 01:38:05;;;;;;;36.63;3.87;;;;;;;6.43;100.00;98687.94;5080567;28;21212;-60
2022/01/28 01:40:36;;;;;;;28.93;3.93;;;;;;;6.57;100.00;98691.28;5080339;28;20637;-60
2022/01/28 01:43:10;;;;;;;22.67;4.23;;;;;;;6.55;100.00;98687.22;5083821;28;20613;-58
2022/01/28 01:45:56;;;;;;;39.70;3.90;;;;;;;6.42;100.00;98683.66;5083619;28;20613;-60
2022/01/28 01:53:52;;;;;;;33.43;3.50;;;;;;;6.32;100.00;98693.94;5081246;28;20594;-60
2022/01/28 01:56:21;;;;;;;17.60;2.77;;;;;;;6.33;100.00;98703.53;5083635;28;20602;-60
2022/01/28 01:58:48;;;;;;;26.33;3.27;;;;;;;6.28;100.00;98705.22;5082030;28;20657;-59
2022/01/28 02:01:16;;;;;;;8.13;2.10;;;;;;;6.27;100.00;98707.06;5080064;28;20598;-60
2022/01/28 02:03:43;;;;;;;35.60;3.33;;;;;;;6.17;100.00;98717.31;5080551;28;20610;-60
2022/01/28 02:06:10;;;;;;;21.67;2.60;;;;;;;6.28;100.00;98716.63;5083337;28;20598;-58
2022/01/28 02:08:37;;;;;;;44.60;4.40;;;;;;;6.27;100.00;98704.41;5083304;28;20671;-60
2022/01/28 02:11:04;;;;;;;8.83;2.00;;;;;;;6.18;100.00;98695.09;5071744;28;20624;-61
2022/01/28 02:13:34;;;;;;;18.80;4.10;;;;;;;6.27;100.00;98695.63;5071450;28;20598;-59
2022/01/28 02:16:01;;;;;;;16.13;2.90;;;;;;;6.37;100.00;98695.97;5071426;28;20610;-60
2022/01/28 02:18:29;;;;;;;11.80;3.10;;;;;;;6.18;100.00;98703.03;5071329;28;20610;-60
2022/01/28 02:21:04;;;;;;;29.80;3.57;;;;;;;6.17;100.00;98706.72;5078832;28;20622;-59
2022/01/28 02:23:31;;;;;;;20.90;3.70;;;;;;;6.13;100.00;98720.63;5077642;28;20623;-59
2022/01/28 02:25:59;;;;;;;39.70;3.83;;;;;;;6.19;100.00;98736.47;5083199;28;20652;-59
2022/01/28 02:28:27;;;;;;;16.37;2.40;;;;;;;6.14;100.00;98738.97;5082846;28;20683;-60
2022/01/28 02:30:54;;;;;;;14.17;2.60;;;;;;;6.08;100.00;98736.34;5080731;28;20616;-62
2022/01/28 02:33:22;;;;;;;19.83;2.97;;;;;;;6.06;100.00;98731.28;5079381;28;20603;-59
2022/01/28 02:35:50;;;;;;;24.30;3.00;;;;;;;6.15;100.00;98723.88;5080524;28;20610;-59
2022/01/28 02:38:20;;;;;;;31.70;3.43;;;;;;;6.17;100.00;98733.22;5082904;28;20632;-60
2022/01/28 02:40:50;;;;;;;19.80;2.80;;;;;;;6.17;100.00;98727.13;5081595;28;20601;-59
2022/01/28 02:43:28;;;;;;;8.97;1.97;;;;;;;6.08;100.00;98713.31;5079279;28;20607;-60
2022/01/28 02:46:02;;;;;;;12.33;2.70;;;;;;;6.08;100.00;98728.41;5081467;28;20606;-59
2022/01/28 02:48:30;;;;;;;12.33;2.43;;;;;;;6.06;100.00;98714.56;5082465;28;20691;-60
2022/01/28 02:51:04;;;;;;;5.97;2.20;;;;;;;6.20;100.00;98713.41;5079983;28;20645;-60
2022/01/28 02:53:40;;;;;;;28.27;3.60;;;;;;;6.09;100.00;98711.47;5085498;28;20632;-59
2022/01/28 02:56:14;;;;;;;8.33;1.80;;;;;;;6.22;100.00;98729.94;5077953;28;20626;-61
2022/01/28 02:58:41;;;;;;;16.43;3.27;;;;;;;6.04;100.00;98733.31;5079470;28;20594;-59
2022/01/28 03:01:08;;;;;;;14.10;2.77;;;;;;;5.99;100.00;98719.91;5081442;28;20720;-59
2022/01/28 03:03:35;;;;;;;8.20;3.00;;;;;;;6.03;100.00;98725.59;5082330;28;20621;-60
2022/01/28 03:06:01;;;;;;;12.03;3.63;;;;;;;6.02;100.00;98734.56;5079282;28;20682;-59
2022/01/28 03:08:30;;;;;;;4.30;2.00;;;;;;;6.06;100.00;98727.81;5078685;28;20673;-60
2022/01/28 03:11:24;;;;;;;42.10;4.87;;;;;;;6.21;100.00;98736.28;5081194;28;20661;-60
2022/01/28 03:14:02;;;;;;;44.53;5.07;;;;;;;6.10;100.00;98735.09;5080664;28;20636;-59
2022/01/28 03:16:32;;;;;;;7.27;2.40;;;;;;;6.15;100.00;98734.47;5077138;28;20697;-60
2022/01/28 03:19:11;;;;;;;16.57;2.73;;;;;;;6.12;100.00;98730.41;5081502;28;20606;-60
2022/01/28 03:21:42;;;;;;;38.67;4.77;;;;;;;6.08;100.00;98739.81;5081723;28;20712;-60
2022/01/28 03:24:11;;;;;;;34.33;3.23;;;;;;;6.00;100.00;98742.75;5082425;28;20636;-60
2022/01/28 03:26:39;;;;;;;24.83;4.60;;;;;;;5.79;100.00;98732.41;5081806;28;20645;-60
2022/01/28 03:29:07;;;;;;;13.87;3.63;;;;;;;5.81;100.00;98749.75;5070089;28;21404;-60
2022/01/28 03:31:34;;;;;;;17.40;3.37;;;;;;;5.94;100.00;98739.06;5069924;28;20610;-60
2022/01/28 03:34:01;;;;;;;13.13;3.50;;;;;;;5.80;100.00;98752.59;5069951;28;20606;-60
2022/01/28 03:36:27;;;;;;;32.30;4.40;;;;;;;5.86;100.00;98751.78;5069746;28;20626;-60
2022/01/28 03:38:54;;;;;;;13.40;2.70;;;;;;;5.92;100.00;98757.03;5069843;28;20609;-61
2022/01/28 03:41:23;;;;;;;11.10;2.70;;;;;;;5.94;100.00;98749.69;5069869;28;20614;-59
2022/01/28 03:43:51;;;;;;;20.33;3.53;;;;;;;6.01;100.00;98754.13;5069700;28;20606;-62
2022/01/28 03:46:18;;;;;;;21.50;4.10;;;;;;;6.00;100.00;98768.44;5069756;28;20995;-59
2022/01/28 03:48:44;;;;;;;21.27;3.80;;;;;;;5.98;100.00;98765.97;5069358;28;20657;-60
2022/01/28 03:51:11;;;;;;;14.53;3.23;;;;;;;5.91;100.00;98770.53;5069631;28;20617;-60
2022/01/28 03:53:38;;;;;;;35.60;3.90;;;;;;;5.97;100.00;98781.06;5076894;28;20602;-59
2022/01/28 03:56:05;;;;;;;10.53;2.43;;;;;;;5.88;100.00;98777.03;5069650;28;20599;-59
2022/01/28 03:58:31;;;;;;;31.03;4.30;;;;;;;5.86;100.00;98773.81;5069635;28;20610;-60
2022/01/28 04:00:59;;;;;;;19.37;2.67;;;;;;;5.92;100.00;98780.91;5069795;28;21099;-64
2022/01/28 04:03:46;;;;;;;9.40;3.23;;;;;;;5.88;100.00;98765.66;5069807;28;20610;-59
2022/01/28 04:11:39;;;;;;;54.27;5.60;;;;;;;5.97;100.00;98785.59;5078043;28;20678;-59
2022/01/28 04:14:13;;;;;;;8.70;2.60;;;;;;;5.82;100.00;98782.34;5078118;28;20684;-59
2022/01/28 04:19:25;;;;;;;5.80;1.63;;;;;;;5.95;100.00;98787.63;5081338;28;20624;-59
2022/01/28 04:21:52;;;;;;;10.80;2.63;;;;;;;5.89;100.00;98791.94;5079439;28;20609;-59
2022/01/28 04:24:19;;;;;;;11.40;2.90;;;;;;;5.97;100.00;98796.97;5083403;28;20597;-60
2022/01/28 04:26:46;;;;;;;60.63;4.63;;;;;;;5.91;100.00;98792.53;5080259;28;20597;-60
2022/01/28 04:29:13;;;;;;;33.97;4.60;;;;;;;5.80;100.00;98802.97;5081900;28;20641;-61
2022/01/28 04:31:45;;;;;;;41.50;4.23;;;;;;;5.72;100.00;98813.81;5081802;28;20685;-60
2022/01/28 04:34:11;;;;;;;6.73;1.80;;;;;;;5.88;100.00;98808.06;5085158;28;20605;-58
2022/01/28 04:36:46;;;;;;;24.17;3.80;;;;;;;5.90;100.00;98808.66;5085157;28;20613;-59
2022/01/28 04:39:19;;;;;;;17.47;3.73;;;;;;;5.91;100.00;98802.34;5073333;28;20640;-60
2022/01/28 04:41:56;;;;;;;23.53;3.30;;;;;;;5.95;100.00;98814.13;5072971;28;20690;-59
2022/01/28 04:44:29;;;;;;;25.23;2.70;;;;;;;5.79;100.00;98819.88;5073094;28;20614;-59
2022/01/28 04:47:03;;;;;;;30.27;3.80;;;;;;;5.86;100.00;98821.50;5072904;28;20618;-59
2022/01/28 04:49:40;;;;;;;9.20;2.50;;;;;;;5.77;100.00;98837.84;5072968;28;20637;-60
2022/01/28 04:55:02;;;;;;;31.57;3.43;;;;;;;5.84;100.00;98843.94;5065970;28;20721;-60
2022/01/28 04:57:37;;;;;;;13.83;3.00;;;;;;;5.91;100.00;98852.72;5081200;28;20613;-60
2022/01/28 05:00:13;;;;;;;25.90;3.17;;;;;;;5.89;100.00;98863.50;5084762;28;21430;-60
2022/01/28 05:05:48;;;;;;;29.03;4.10;;;;;;;5.93;100.00;98864.72;5080632;28;20646;-59
2022/01/28 05:08:38;;;;;;;11.93;3.10;;;;;;;5.89;100.00;98860.03;5081097;28;20634;-60
2022/01/28 05:17:05;;;;;;;28.53;3.37;;;;;;;5.86;100.00;98871.06;5084201;28;21253;-61
2022/01/28 05:27:51;;;;;;;28.57;4.73;;;;;;;5.77;100.00;98885.53;5051493;28;20631;-60
2022/01/28 05:30:18;;;;;;;25.07;3.63;;;;;;;5.79;100.00;98875.53;5084132;28;20616;-59
2022/01/28 05:32:44;;;;;;;30.50;3.03;;;;;;;5.76;100.00;98883.91;5083051;28;20581;-60
2022/01/28 05:35:12;;;;;;;28.93;3.23;;;;;;;5.74;100.00;98880.66;5080625;28;20594;-58
2022/01/28 05:37:39;;;;;;;30.77;3.10;;;;;;;5.75;100.00;98866.41;5080600;28;20632;-59
2022/01/28 05:40:07;;;;;;;34.43;3.60;;;;;;;5.85;100.00;98880.00;5079954;28;20612;-58
2022/01/28 05:42:34;;;;;;;29.93;3.77;;;;;;;5.72;100.00;98885.38;5080376;28;20661;-60
2022/01/28 05:45:01;;;;;;;6.17;2.40;;;;;;;5.76;100.00;98889.22;5083579;28;20639;-59
2022/01/28 05:47:27;;;;;;;18.47;3.53;;;;;;;5.86;100.00;98889.63;5083733;28;20609;-59
2022/01/28 05:49:54;;;;;;;23.43;3.17;;;;;;;5.77;100.00;98890.84;5081471;28;20653;-59
2022/01/28 05:52:22;;;;;;;16.23;2.70;;;;;;;5.74;100.00;98891.25;5080491;28;20598;-59
2022/01/28 05:54:48;;;;;;;25.10;3.20;;;;;;;5.88;100.00;98896.34;5088329;28;20594;-62
2022/01/28 05:57:15;;;;;;;69.33;6.33;;;;;;;5.99;100.00;98897.53;5080221;28;20621;-60
2022/01/28 05:59:42;;;;;;;28.53;3.30;;;;;;;5.88;100.00;98906.94;5080238;28;20609;-60
2022/01/28 06:02:08;;;;;;;18.70;2.73;;;;;;;5.94;100.00;98908.75;5083567;28;20604;-60
2022/01/28 06:04:37;;;;;;;75.33;5.63;;;;;;;5.79;100.00;98912.66;5083357;28;20601;-60
2022/01/28 06:07:04;;;;;;;31.40;3.43;;;;;;;5.72;100.00;98919.81;5080093;28;20629;-60
2022/01/28 06:09:32;;;;;;;17.37;3.90;;;;;;;5.86;100.00;98916.13;5079813;28;20646;-59
2022/01/28 06:11:58;;;;;;;11.70;2.73;;;;;;;5.91;100.00;98922.44;5082624;28;20610;-60
2022/01/28 06:14:25;;;;;;;7.87;2.53;;;;;;;5.89;100.00;98918.38;5083176;28;20625;-59
2022/01/28 06:16:52;;;;;;;58.93;4.53;;;;;;;5.80;100.00;98911.63;5081481;28;20977;-59
2022/01/28 06:19:18;;;;;;;29.43;3.33;;;;;;;5.67;100.00;98922.25;5079868;28;20621;-60
2022/01/28 06:21:45;;;;;;;36.67;3.63;;;;;;;5.76;100.00;98919.19;5080380;28;20598;-60
2022/01/28 06:24:12;;;;;;;19.63;2.87;;;;;;;5.79;100.00;98915.28;5090566;28;20703;-59
2022/01/28 06:26:40;;;;;;;20.67;2.73;;;;;;;5.75;100.00;98920.22;5082945;28;20662;-59
2022/01/28 06:29:07;;;;;;;8.30;2.70;;;;;;;5.84;100.00;98918.16;5071205;28;20726;-59
2022/01/28 06:31:34;;;;;;;23.63;2.90;;;;;;;5.80;100.00;98922.22;5071066;28;20602;-59
2022/01/28 06:34:00;;;;;;;11.30;3.17;;;;;;;5.88;100.00;98930.81;5071187;28;20603;-59
2022/01/28 06:36:27;;;;;;;21.13;2.83;;;;;;;5.72;100.00;98935.72;5070997;28;20630;-60
2022/01/28 06:38:53;;;;;;;9.87;2.90;;;;;;;5.79;100.00;98941.81;5071014;28;20599;-61
2022/01/28 06:41:20;;;;;;;21.90;3.37;;;;;;;5.67;100.00;98949.56;5070812;28;20590;-61
2022/01/28 06:43:48;;;;;;;70.47;6.20;;;;;;;5.67;100.00;98962.00;5070627;28;20598;-60
2022/01/28 06:46:15;;;;;;;66.60;5.77;;;;;;;5.60;100.00;98971.81;5070845;28;20621;-59
2022/01/28 06:48:41;;;;;;;33.23;3.90;;;;;;;5.59;100.00;98973.66;5070406;28;20662;-59
2022/01/28 06:51:08;;;;;;;23.27;3.63;;;;;;;5.71;100.00;98969.34;5069767;28;20611;-60
2022/01/28 06:53:34;;;;;;;40.07;3.83;;;;;;;5.79;100.00;98978.91;5076442;28;20598;-61
2022/01/28 06:56:01;;;;;;;26.77;2.90;;;;;;;5.76;100.00;98985.44;5082362;28;20604;-60
2022/01/28 06:58:28;;;;;;;59.67;5.00;;;;;;;5.73;100.00;98985.84;5082130;28;20598;-60
2022/01/28 07:00:56;;;;;;;27.93;3.43;;;;;;;5.66;100.00;98986.91;5080173;28;20594;-59
2022/01/28 07:03:22;;;;;;;24.63;3.00;;;;;;;5.64;100.00;98991.56;5078784;28;20617;-60
2022/01/28 07:05:49;;;;;;;51.73;4.70;;;;;;;5.58;100.00;98985.25;5080017;28;20598;-61
2022/01/28 07:08:15;;;;;;;20.73;2.47;;;;;;;5.68;100.00;98982.19;5082087;28;20641;-60
2022/01/28 07:10:42;;;;;;;52.27;4.57;;;;;;;5.70;100.00;98980.97;5081512;28;20621;-60
2022/01/28 07:13:08;;;;;;;41.20;5.00;;;;;;;5.68;100.00;98984.84;5078622;28;20610;-61
2022/01/28 07:15:35;;;;;;;13.10;3.00;;;;;;;5.84;100.00;98987.09;5078459;28;20634;-62
2022/01/28 07:18:04;;;;;;;11.03;2.03;;;;;;;5.68;100.00;98982.19;5081652;28;21065;-60
2022/01/28 07:20:33;;;;;;;34.47;4.13;;;;;;;5.71;100.00;98990.56;5081874;28;20628;-60
2022/01/28 07:23:00;;;;;;;16.73;2.50;;;;;;;5.78;100.00;98995.84;5081177;28;20678;-60
2022/01/28 07:25:27;;;;;;;21.97;3.03;;;;;;;5.73;100.00;98993.00;5083506;28;20598;-59
2022/01/28 07:27:54;;;;;;;12.73;2.33;;;;;;;5.67;100.00;99001.75;5080435;28;20598;-59
2022/01/28 07:30:20;;;;;;;22.50;2.40;;;;;;;5.63;100.00;98990.75;5081871;28;21262;-60
2022/01/28 07:32:49;;;;;;;50.10;4.00;;;;;;;5.62;100.00;98988.31;5080648;28;20628;-59
2022/01/28 07:35:18;;;;;;;26.67;2.50;;;;;;;5.65;100.00;98995.84;5078440;28;20613;-59
2022/01/28 07:37:44;;;;;;;28.43;3.20;;;;;;;5.82;100.00;99010.31;5079007;28;20916;-59
2022/01/28 07:40:12;;;;;;;14.30;1.93;;;;;;;5.90;100.00;99004.84;5082067;28;20634;-59
2022/01/28 07:42:40;;;;;;;51.90;4.77;;;;;;;5.94;100.00;99014.03;5081827;28;20597;-59
2022/01/28 07:45:09;;;;;;;26.67;3.37;;;;;;;5.88;100.00;99012.19;5077474;28;20621;-59
2022/01/28 07:47:36;;;;;;;30.13;4.30;;;;;;;5.97;100.00;99013.63;5077972;28;20606;-59
2022/01/28 07:50:03;;;;;;;18.80;2.53;;;;;;;5.84;100.00;99006.47;5081249;28;20659;-59
2022/01/28 07:52:32;;;;;;;45.63;3.77;;;;;;;5.96;100.00;99017.28;5081614;28;20594;-59
2022/01/28 07:54:58;;;;;;;29.73;3.20;;;;;;;5.98;100.00;99025.81;5086600;28;20605;-60
2022/01/28 07:57:25;;;;;;;38.00;3.37;;;;;;;5.95;100.00;99047.44;5077978;28;20625;-60
2022/01/28 07:59:51;;;;;;;35.90;3.93;;;;;;;5.84;100.00;99050.69;5078511;28;20634;-60
2022/01/28 08:02:18;;;;;;;14.70;3.30;;;;;;;5.86;100.00;99049.50;5081203;28;20613;-59
2022/01/28 08:04:45;;;;;;;72.07;5.60;;;;;;;5.94;100.00;99053.78;5080312;28;20703;-60
2022/01/28 08:07:11;;;;;;;15.93;2.90;;;;;;;5.90;100.00;99064.00;5078068;28;20597;-60
2022/01/28 08:09:39;;;;;;;33.23;3.53;;;;;;;5.83;100.00;99071.09;5077597;28;20653;-59
2022/01/28 08:12:07;;;;;;;41.17;3.67;;;;;;;5.82;100.00;99072.09;5069649;28;20622;-59
2022/01/28 08:14:33;;;;;;;35.60;4.40;;;;;;;5.84;100.00;99075.38;5069212;28;21141;-59
2022/01/28 08:17:00;;;;;;;35.53;3.43;;;;;;;5.84;100.00;99087.81;5069358;28;20621;-59
2022/01/28 08:19:27;;;;;;;48.73;4.30;;;;;;;5.77;100.00;99073.75;5069285;28;20602;-59
2022/01/28 08:21:53;;;;;;;27.37;3.57;;;;;;;5.83;100.00;99078.22;5069466;28;20605;-60
2022/01/28 08:24:20;;;;;;;23.90;2.67;;;;;;;5.64;100.00;99065.78;5082686;28;20609;-60
2022/01/28 08:26:48;;;;;;;28.43;2.97;;;;;;;5.79;100.00;99077.81;5079814;28;20590;-60
2022/01/28 08:29:15;;;;;;;32.17;2.93;;;;;;;5.77;100.00;99079.03;5077749;28;20676;-60
2022/01/28 08:31:41;;;;;;;43.73;3.67;;;;;;;5.75;100.00;99097.00;5077896;28;20605;-59
2022/01/28 08:34:08;;;;;;;17.60;1.90;;;;;;;5.80;100.00;99105.13;5081248;28;20625;-60
2022/01/28 08:36:35;;;;;;;14.77;2.20;;;;;;;5.85;100.00;99094.72;5081178;28;20602;-60
2022/01/28 08:39:04;;;;;;;21.93;2.67;;;;;;;5.79;100.00;99109.63;5078117;28;20611;-60
2022/01/28 08:41:32;;;;;;;75.63;5.00;;;;;;;5.86;100.00;99114.97;5077557;28;20603;-61
2022/01/28 08:44:00;;;;;;;29.63;3.07;;;;;;;5.95;100.00;99117.22;5080304;28;20655;-60
2022/01/28 08:46:27;;;;;;;19.70;2.10;;;;;;;5.81;100.00;99115.56;5080849;28;20616;-60
2022/01/28 08:48:53;;;;;;;24.43;2.80;;;;;;;5.89;100.00;99117.22;5078712;28;20641;-59
2022/01/28 08:51:20;;;;;;;25.33;2.43;;;;;;;5.80;100.00;99113.09;5077297;28;20653;-60
2022/01/28 08:53:46;;;;;;;52.77;3.50;;;;;;;5.70;100.00;99123.28;5085800;28;20598;-59
2022/01/28 08:56:13;;;;;;;57.33;3.60;;;;;;;5.70;100.00;99131.22;5080909;28;20990;-59
2022/01/28 08:58:40;;;;;;;59.33;3.47;;;;;;;5.74;100.00;99129.81;5080759;28;20612;-59
2022/01/28 09:01:09;;;;;;;18.50;1.83;;;;;;;5.86;100.00;99128.22;5077382;28;20629;-59
2022/01/28 09:03:36;;;;;;;49.67;3.30;;;;;;;5.75;100.00;99131.44;5077156;28;20610;-59
2022/01/28 09:06:03;;;;;;;27.57;1.93;;;;;;;5.67;100.00;99128.97;5080517;28;20597;-63
2022/01/28 09:08:29;;;;;;;8.93;1.10;;;;;;;5.88;100.00;99127.00;5080559;28;20606;-59
2022/01/28 09:11:08;;;;;;;70.17;4.10;;;;;;;5.93;100.00;99124.56;5078183;28;20713;-59
2022/01/28 09:13:38;;;;;;;69.83;4.60;;;;;;;5.88;100.00;99126.19;5077007;28;20610;-59
2022/01/28 09:16:05;;;;;;;17.43;1.60;;;;;;;6.03;100.00;99121.50;5072232;28;21467;-60
2022/01/28 09:18:33;;;;;;;27.77;2.63;;;;;;;5.98;100.00;99122.09;5072383;28;20606;-59
2022/01/28 09:21:00;;;;;;;16.13;1.80;;;;;;;6.02;100.00;99117.22;5072477;28;20606;-60
2022/01/28 09:23:26;;;;;;;30.87;2.93;;;;;;;6.14;100.00;99128.84;5077919;28;20636;-60
2022/01/28 09:25:53;;;;;;;27.63;2.20;;;;;;;6.07;100.00;99125.38;5083856;28;20598;-60
2022/01/28 09:28:20;;;;;;;63.90;3.90;;;;;;;5.96;100.00;99137.41;5083949;28;20604;-59
2022/01/28 09:30:46;;;;;;;56.27;3.87;;;;;;;5.73;100.00;99138.75;5082791;28;20637;-60
2022/01/28 09:33:13;;;;;;;32.93;2.47;;;;;;;5.81;100.00;99133.28;5080439;28;20602;-60
2022/01/28 09:35:42;;;;;;;67.13;3.97;;;;;;;5.86;100.00;99144.13;5080464;28;21702;-60
2022/01/28 09:38:09;;;;;;;36.63;2.40;;;;;;;5.76;100.00;99135.72;5083761;28;20688;-60
2022/01/28 09:40:36;;;;;;;34.87;2.50;;;;;;;5.94;100.00;99138.63;5083727;28;20597;-59
2022/01/28 09:43:05;;;;;;;38.70;2.30;;;;;;;5.98;100.00;99139.84;5080578;28;20598;-59
2022/01/28 09:45:32;;;;;;;43.37;3.33;;;;;;;6.00;100.00;99147.63;5080157;28;20618;-60
2022/01/28 09:47:59;;;;;;;15.23;1.80;;;;;;;5.80;100.00;99140.41;5082965;28;20629;-60
2022/01/28 09:50:28;;;;;;;15.30;1.90;;;;;;;5.86;100.00;99138.81;5083500;28;20747;-60
2022/01/28 09:52:56;;;;;;;33.17;2.20;;;;;;;6.00;100.00;99144.97;5082964;28;20631;-60
2022/01/28 09:55:25;;;;;;;40.50;3.03;;;;;;;6.08;100.00;99153.53;5085982;28;20638;-59
2022/01/28 09:57:53;;;;;;;38.17;2.93;;;;;;;6.07;100.00;99156.38;5081950;28;20610;-60
2022/01/28 10:00:23;;;;;;;35.23;2.40;;;;;;;5.97;100.00;99154.16;5083628;28;20621;-59
2022/01/28 10:02:51;;;;;;;38.87;2.40;;;;;;;5.79;100.00;99159.16;5082095;28;21527;-59
2022/01/28 10:05:21;;;;;;;31.07;2.10;;;;;;;5.80;100.00;99153.69;5080084;28;20614;-61
2022/01/28 10:08:03;;;;;;;41.97;3.03;;;;;;;5.97;100.00;99165.53;5080857;28;20603;-59
2022/01/28 10:10:52;;;;;;;21.30;2.20;;;;;;;6.00;100.00;99172.31;5083089;28;20645;-60
2022/01/28 10:13:25;;;;;;;22.43;2.00;;;;;;;5.78;100.00;99173.47;5071385;28;20626;-60
2022/01/28 10:16:02;;;;;;;26.13;1.97;;;;;;;5.89;100.00;99186.13;5071267;28;20708;-59
2022/01/28 10:18:46;;;;;;;29.27;1.87;;;;;;;5.98;100.00;99179.63;5071217;28;20606;-60
2022/01/28 10:21:23;;;;;;;18.63;1.77;;;;;;;5.97;100.00;99193.91;5071235;28;20610;-60
2022/01/28 10:24:04;;;;;;;33.27;2.60;;;;;;;6.06;100.00;99186.59;5078739;28;20639;-60
2022/01/28 10:26:32;;;;;;;25.73;2.20;;;;;;;6.10;100.00;99183.31;5082501;28;20643;-60
2022/01/28 10:29:00;;;;;;;41.00;2.43;;;;;;;5.99;100.00;99181.25;5080096;28;20612;-59
2022/01/28 10:31:38;;;;;;;26.63;2.90;;;;;;;6.07;100.00;99186.34;5079154;28;20657;-60
2022/01/28 10:34:16;;;;;;;57.20;3.47;;;;;;;6.11;100.00;99184.94;5082568;28;20597;-59
2022/01/28 10:36:44;;;;;;;104.00;5.83;;;;;;;6.02;100.00;99191.47;5081819;28;20605;-59
2022/01/28 10:39:17;;;;;;;18.23;1.20;;;;;;;6.00;100.00;99187.38;5079135;28;20614;-60
2022/01/28 10:41:52;;;;;;;21.30;1.50;;;;;;;6.11;100.00;99186.78;5079523;28;20607;-60
2022/01/28 10:44:19;;;;;;;41.97;3.50;;;;;;;6.05;100.00;99175.16;5082464;28;20612;-60
2022/01/28 10:46:53;;;;;;;55.43;3.20;;;;;;;6.21;100.00;99180.06;5081325;28;20637;-60
2022/01/28 10:49:26;;;;;;;22.13;1.53;;;;;;;6.04;100.00;99168.19;5078860;28;20611;-61
2022/01/28 10:51:53;;;;;;;30.47;1.77;;;;;;;6.22;100.00;99179.00;5080738;28;21319;-59
2022/01/28 10:54:22;;;;;;;14.80;1.67;;;;;;;6.09;100.00;99171.06;5089894;28;20652;-60
2022/01/28 10:56:53;;;;;;;44.57;2.43;;;;;;;6.11;100.00;99169.03;5080570;28;20610;-59
2022/01/28 10:59:22;;;;;;;51.40;2.90;;;;;;;6.04;100.00;99167.38;5078750;28;20633;-60
2022/01/28 11:01:49;;;;;;;45.40;2.87;;;;;;;6.03;100.00;99171.06;5079797;28;20615;-60
2022/01/28 11:04:18;;;;;;;50.97;2.90;;;;;;;6.02;100.00;99170.25;5082143;28;20593;-60
2022/01/28 11:06:45;;;;;;;47.93;3.20;;;;;;;6.12;100.00;99172.50;5081329;28;20605;-60
2022/01/28 11:09:14;;;;;;;17.53;1.47;;;;;;;5.92;100.00;99157.38;5078672;28;20693;-59
2022/01/28 11:11:43;;;;;;;40.10;2.50;;;;;;;6.12;100.00;99167.19;5078642;28;20642;-60
2022/01/28 11:14:09;;;;;;;47.33;2.87;;;;;;;6.18;100.00;99174.34;5081944;28;20647;-60
2022/01/28 11:16:37;;;;;;;33.93;2.57;;;;;;;6.04;100.00;99184.13;5081811;28;20597;-59
2022/01/28 11:19:05;;;;;;;74.10;4.23;;;;;;;6.06;100.00;99175.97;5078471;28;20629;-60
2022/01/28 11:21:45;;;;;;;126.23;6.77;;;;;;;6.09;100.00;99181.69;5077606;28;21379;-60
2022/01/28 11:24:20;;;;;;;84.93;4.53;;;;;;;5.99;100.00;99186.56;5082037;28;20609;-60
2022/01/28 11:26:54;;;;;;;134.97;7.03;;;;;;;6.15;100.00;99196.78;5079807;28;20604;-60
2022/01/28 11:29:25;;;;;;;12.33;1.17;;;;;;;6.07;100.00;99198.81;5077873;28;20617;-59
2022/01/28 11:31:53;;;;;;;27.77;2.00;;;;;;;6.10;100.00;99199.22;5079464;28;20645;-59
2022/01/28 11:34:24;;;;;;;23.60;1.63;;;;;;;6.23;100.00;99196.56;5081527;28;20986;-60
2022/01/28 11:36:52;;;;;;;28.73;2.70;;;;;;;6.17;100.00;99200.03;5079229;28;20602;-60
2022/01/28 11:39:23;;;;;;;39.73;2.73;;;;;;;6.29;100.00;99200.25;5077998;28;20612;-60
2022/01/28 11:42:03;;;;;;;40.23;2.47;;;;;;;6.41;100.00;99199.44;5079141;28;20701;-61
2022/01/28 11:44:41;;;;;;;48.60;3.30;;;;;;;6.15;100.00;99196.78;5081180;28;20637;-60
2022/01/28 11:47:09;;;;;;;59.87;3.50;;;;;;;6.27;100.00;99194.34;5077759;28;20594;-60
2022/01/28 11:49:52;;;;;;;33.77;2.57;;;;;;;6.11;100.00;99192.91;5077667;28;20610;-61
2022/01/28 11:52:27;;;;;;;33.80;2.17;;;;;;;6.23;100.00;99203.72;5069683;28;20611;-60
2022/01/28 11:54:54;;;;;;;20.43;1.77;;;;;;;6.22;100.00;99191.50;5085218;28;20620;-60
2022/01/28 11:57:26;;;;;;;63.10;4.63;;;;;;;6.14;100.00;99197.81;5077701;28;20610;-60
2022/01/28 11:59:53;;;;;;;70.30;4.40;;;;;;;6.34;100.00;99193.34;5079102;28;20701;-60
2022/01/28 12:02:22;;;;;;;35.87;2.40;;;;;;;6.19;100.00;99187.38;5080888;28;20636;-59
2022/01/28 12:04:49;;;;;;;77.30;5.03;;;;;;;6.23;100.00;99183.31;5079414;28;20593;-60
2022/01/28 12:07:22;;;;;;;63.90;3.77;;;;;;;6.23;100.00;99185.16;5077292;28;20610;-59
2022/01/28 12:09:51;;;;;;;33.03;2.60;;;;;;;6.16;100.00;99185.13;5078835;28;20594;-60
2022/01/28 12:12:38;;;;;;;29.30;2.00;;;;;;;6.27;100.00;99187.19;5080186;28;20618;-60
2022/01/28 12:15:12;;;;;;;50.90;3.03;;;;;;;6.40;100.00;99197.00;5060739;28;20615;-60
2022/01/28 12:17:41;;;;;;;50.27;3.30;;;;;;;6.11;100.00;99200.84;5077411;28;20615;-60
2022/01/28 12:20:38;;;;;;;44.23;3.63;;;;;;;6.23;100.00;99193.94;5069248;28;20610;-60
2022/01/28 12:23:25;;;;;;;62.03;3.57;;;;;;;6.09;100.00;99194.94;5080217;28;20601;-60
2022/01/28 12:25:59;;;;;;;35.30;2.27;;;;;;;6.01;100.00;99204.91;5080550;28;20621;-60
2022/01/28 12:28:42;;;;;;;38.67;2.40;;;;;;;6.19;100.00;99213.91;5080611;28;20664;-59
2022/01/28 12:31:13;;;;;;;44.40;2.50;;;;;;;6.11;100.00;99210.66;5077239;28;20645;-60